Time;durP1;ratioP1;P1;durP2;ratioP2;P2;SDS_P1;SDS_P2;PMS_P1;PMS_P2;Temp;Humidity;BMP_temperature;BMP_pressure;BME280_temperature;BME280_humidity;BME280_pressure;Samples;Min_cycle;Max_cycle;Signal;HPM_P1;HPM_P2
2023/08/15 00:02:13;;;;;;;9.85;4.65;;;22.20;73.80;;;;;;5046381;28;20489;-68
2023/08/15 00:04:39;;;;;;;9.43;4.97;;;22.20;73.90;;;;;;5046911;28;20063;-67
2023/08/15 00:07:05;;;;;;;9.93;5.05;;;22.20;74.00;;;;;;5046277;28;20045;-67
2023/08/15 00:09:31;;;;;;;9.60;5.05;;;22.20;74.10;;;;;;5048939;28;20412;-67
2023/08/15 00:11:58;;;;;;;11.85;5.38;;;22.20;74.20;;;;;;5049221;28;20060;-67
2023/08/15 00:14:24;;;;;;;12.70;5.93;;;22.20;74.30;;;;;;5049330;28;20655;-68
2023/08/15 00:16:49;;;;;;;9.88;5.75;;;22.10;74.40;;;;;;5043878;28;20040;-67
2023/08/15 00:19:15;;;;;;;9.85;5.20;;;22.10;74.60;;;;;;5045145;28;20013;-67
2023/08/15 00:21:41;;;;;;;11.73;6.25;;;22.10;74.70;;;;;;5039625;28;20406;-67
2023/08/15 00:24:07;;;;;;;10.05;5.60;;;22.10;74.80;;;;;;5039874;28;20477;-67
2023/08/15 00:26:33;;;;;;;11.20;5.78;;;22.00;74.80;;;;;;5042811;28;20050;-67
2023/08/15 00:28:58;;;;;;;8.77;5.57;;;22.10;75.00;;;;;;5038019;28;20030;-67
2023/08/15 00:31:27;;;;;;;9.23;5.38;;;22.00;75.00;;;;;;5049261;28;20047;-67
2023/08/15 00:33:53;;;;;;;9.52;5.63;;;22.00;75.10;;;;;;5040657;28;20143;-67
2023/08/15 00:36:18;;;;;;;8.68;4.60;;;22.00;75.20;;;;;;5047053;28;20036;-67
2023/08/15 00:38:44;;;;;;;7.80;4.97;;;22.00;75.30;;;;;;5042307;28;20017;-67
2023/08/15 00:41:10;;;;;;;9.52;5.38;;;22.00;75.40;;;;;;5042030;28;20025;-67
2023/08/15 00:43:36;;;;;;;8.95;5.40;;;22.00;75.50;;;;;;5044984;28;20041;-67
2023/08/15 00:46:05;;;;;;;9.15;5.50;;;21.90;75.60;;;;;;5045324;28;20040;-67
2023/08/15 00:48:32;;;;;;;9.25;5.47;;;21.90;75.60;;;;;;5043112;28;20029;-67
2023/08/15 00:51:00;;;;;;;10.07;5.43;;;21.90;75.80;;;;;;5038998;28;20366;-67
2023/08/15 00:53:29;;;;;;;11.32;5.68;;;21.90;75.80;;;;;;5040845;28;20029;-67
2023/08/15 00:55:57;;;;;;;9.68;5.45;;;21.90;75.90;;;;;;5048844;28;20370;-67
2023/08/15 00:58:24;;;;;;;9.50;5.70;;;21.90;76.00;;;;;;5042029;28;20052;-67
2023/08/15 01:00:51;;;;;;;10.88;5.15;;;21.90;76.00;;;;;;5038392;28;20037;-67
2023/08/15 01:03:18;;;;;;;10.88;5.20;;;21.90;76.10;;;;;;5049834;28;20385;-67
2023/08/15 01:05:44;;;;;;;10.98;5.85;;;21.90;76.10;;;;;;5044414;28;20126;-67
2023/08/15 01:08:09;;;;;;;10.43;5.50;;;21.90;76.30;;;;;;5039440;28;20166;-67
2023/08/15 01:10:39;;;;;;;9.02;5.45;;;21.90;76.40;;;;;;5059435;28;20480;-67
2023/08/15 01:13:42;;;;;;;9.80;5.80;;;21.90;76.50;;;;;;5045368;28;20040;-67
2023/08/15 01:16:14;;;;;;;9.68;5.30;;;21.90;76.50;;;;;;5051467;28;20434;-67
2023/08/15 01:18:49;;;;;;;9.93;5.88;;;21.90;76.60;;;;;;5047110;28;20035;-67
2023/08/15 01:21:24;;;;;;;11.75;5.30;;;21.90;76.70;;;;;;5044991;28;20029;-67
2023/08/15 01:23:52;;;;;;;10.57;5.78;;;21.90;76.80;;;;;;5047680;28;20021;-67
2023/08/15 01:26:18;;;;;;;13.40;5.57;;;21.90;76.90;;;;;;5035012;28;20036;-67
2023/08/15 01:28:43;;;;;;;9.43;5.28;;;21.90;76.90;;;;;;5049004;28;20025;-67
2023/08/15 01:31:15;;;;;;;11.00;5.40;;;21.90;77.00;;;;;;5050745;28;20032;-67
2023/08/15 01:33:45;;;;;;;10.45;6.22;;;21.90;77.20;;;;;;5047881;28;20073;-67
2023/08/15 01:36:16;;;;;;;11.55;5.32;;;21.90;77.20;;;;;;5046287;28;20032;-67
2023/08/15 01:38:44;;;;;;;9.38;5.40;;;21.90;77.30;;;;;;5030474;28;20126;-67
2023/08/15 01:41:14;;;;;;;9.80;5.80;;;21.90;77.30;;;;;;5049402;28;20017;-67
2023/08/15 01:43:42;;;;;;;10.20;5.78;;;21.90;77.40;;;;;;5043344;28;20064;-67
2023/08/15 01:46:09;;;;;;;9.32;5.10;;;21.80;77.40;;;;;;5051707;28;20103;-67
2023/08/15 01:48:40;;;;;;;10.10;6.00;;;21.90;77.60;;;;;;5051946;28;20060;-67
2023/08/15 01:51:05;;;;;;;10.05;5.20;;;21.90;77.70;;;;;;5025481;28;20463;-67
2023/08/15 01:53:31;;;;;;;8.57;5.00;;;21.90;77.70;;;;;;5040644;28;20028;-67
2023/08/15 01:55:57;;;;;;;9.73;6.03;;;21.90;77.70;;;;;;5049089;28;20048;-67
2023/08/15 01:58:23;;;;;;;8.38;5.70;;;21.90;77.80;;;;;;5047684;28;20086;-67
2023/08/15 02:00:49;;;;;;;9.77;5.55;;;21.90;77.80;;;;;;5046964;28;20041;-67
2023/08/15 02:03:15;;;;;;;8.35;4.95;;;21.90;77.90;;;;;;5051557;28;20024;-66
2023/08/15 02:05:41;;;;;;;9.80;5.88;;;21.90;77.90;;;;;;5051838;28;20064;-67
2023/08/15 02:08:06;;;;;;;11.05;5.60;;;21.90;78.00;;;;;;5050782;28;20032;-67
2023/08/15 02:10:32;;;;;;;9.82;5.50;;;21.90;78.10;;;;;;5042235;28;20542;-67
2023/08/15 02:12:58;;;;;;;9.63;5.38;;;21.90;78.10;;;;;;5039662;28;20485;-67
2023/08/15 02:15:24;;;;;;;10.98;5.55;;;21.90;78.10;;;;;;5040341;28;20022;-67
2023/08/15 02:17:49;;;;;;;11.20;6.13;;;21.90;78.10;;;;;;5043796;28;20048;-67
2023/08/15 02:20:15;;;;;;;9.60;5.60;;;22.00;78.30;;;;;;5049291;28;20118;-67
2023/08/15 02:22:41;;;;;;;13.82;6.28;;;21.90;78.20;;;;;;5048446;28;20373;-67
2023/08/15 02:25:07;;;;;;;10.77;5.80;;;22.00;78.20;;;;;;5050951;28;20024;-67
2023/08/15 02:27:33;;;;;;;11.80;6.20;;;22.00;78.10;;;;;;5044593;28;20163;-67
2023/08/15 02:29:58;;;;;;;11.25;5.53;;;22.00;78.00;;;;;;5046957;28;20115;-67
2023/08/15 02:32:24;;;;;;;11.50;6.07;;;22.10;77.90;;;;;;5023482;28;20114;-67
2023/08/15 02:34:51;;;;;;;11.23;5.95;;;22.10;77.90;;;;;;5047127;28;20074;-67
2023/08/15 02:37:17;;;;;;;10.60;5.50;;;22.10;77.90;;;;;;5042041;28;20067;-67
2023/08/15 02:39:43;;;;;;;11.00;6.35;;;22.10;77.80;;;;;;5047385;28;20037;-67
2023/08/15 02:42:09;;;;;;;12.43;5.63;;;22.10;77.70;;;;;;5025828;28;20029;-67
2023/08/15 02:44:35;;;;;;;10.63;5.50;;;22.10;77.60;;;;;;5024104;28;20033;-67
2023/08/15 02:47:00;;;;;;;12.32;5.38;;;22.00;77.40;;;;;;5048630;28;20028;-68
2023/08/15 02:49:27;;;;;;;9.65;5.50;;;22.00;78.00;;;;;;5050864;28;20033;-68
2023/08/15 02:51:52;;;;;;;11.30;5.10;;;22.00;77.20;;;;;;5041039;28;20470;-67
2023/08/15 02:54:18;;;;;;;10.45;5.55;;;22.00;77.00;;;;;;5050547;28;20044;-67
2023/08/15 02:56:44;;;;;;;11.00;5.43;;;22.00;77.00;;;;;;5048694;28;20118;-67
2023/08/15 02:59:09;;;;;;;9.20;4.72;;;22.00;76.90;;;;;;5028111;28;20048;-66
2023/08/15 03:01:36;;;;;;;9.90;5.32;;;22.00;76.70;;;;;;5026289;28;20036;-67
2023/08/15 03:04:02;;;;;;;14.02;5.65;;;22.00;76.50;;;;;;5044171;28;20440;-67
2023/08/15 03:06:27;;;;;;;12.02;6.05;;;22.00;76.30;;;;;;5045495;28;20037;-67
2023/08/15 03:08:53;;;;;;;12.75;5.53;;;21.90;76.00;;;;;;5042193;28;20032;-67
2023/08/15 03:11:19;;;;;;;10.50;5.70;;;21.90;75.90;;;;;;5041041;28;20368;-67
2023/08/15 03:13:44;;;;;;;13.93;6.05;;;21.90;75.70;;;;;;5045595;28;20029;-67
2023/08/15 03:16:10;;;;;;;13.05;5.45;;;21.90;75.50;;;;;;5048008;28;20029;-67
2023/08/15 03:18:36;;;;;;;12.48;5.55;;;21.90;75.40;;;;;;5045100;28;20021;-67
2023/08/15 03:21:03;;;;;;;12.15;5.50;;;21.90;75.40;;;;;;5049154;28;20341;-67
2023/08/15 03:23:31;;;;;;;11.82;5.63;;;21.90;75.30;;;;;;5052012;28;20577;-67
2023/08/15 03:26:01;;;;;;;9.60;4.80;;;21.90;75.20;;;;;;5048274;28;20027;-67
2023/08/15 03:28:33;;;;;;;11.65;5.80;;;21.80;75.10;;;;;;5052522;28;20029;-67
2023/08/15 03:31:06;;;;;;;11.25;5.78;;;21.80;75.00;;;;;;5045965;28;20032;-67
2023/08/15 03:33:36;;;;;;;11.40;5.03;;;21.80;74.80;;;;;;5036017;28;20124;-67
2023/08/15 03:36:03;;;;;;;11.30;5.53;;;21.70;74.80;;;;;;5048244;28;20032;-67
2023/08/15 03:38:30;;;;;;;11.65;4.32;;;21.70;74.60;;;;;;5049589;28;20195;-67
2023/08/15 03:41:04;;;;;;;9.00;4.47;;;21.70;74.40;;;;;;5046981;28;20037;-67
2023/08/15 03:43:35;;;;;;;9.35;4.78;;;21.70;74.10;;;;;;5050051;28;20020;-67
2023/08/15 03:46:02;;;;;;;9.48;4.55;;;21.70;73.90;;;;;;5048672;28;20116;-67
2023/08/15 03:48:31;;;;;;;9.93;4.82;;;21.70;73.80;;;;;;5033941;28;20377;-67
2023/08/15 03:50:57;;;;;;;12.13;4.72;;;21.70;73.70;;;;;;5046823;28;20028;-67
2023/08/15 03:53:24;;;;;;;9.13;4.45;;;21.60;73.60;;;;;;5043067;28;20029;-67
2023/08/15 03:55:52;;;;;;;13.23;4.65;;;21.60;73.60;;;;;;5046796;28;20029;-67
2023/08/15 03:58:19;;;;;;;9.43;4.35;;;21.60;73.60;;;;;;5060956;28;20035;-67
2023/08/15 04:00:46;;;;;;;9.23;4.68;;;21.60;73.50;;;;;;5043589;28;20047;-67
2023/08/15 04:03:12;;;;;;;10.27;4.90;;;21.60;73.40;;;;;;5045878;28;20520;-67
2023/08/15 04:05:42;;;;;;;10.50;4.45;;;21.50;73.30;;;;;;5046428;28;20445;-67
2023/08/15 04:08:08;;;;;;;9.60;4.80;;;21.50;73.30;;;;;;5027895;28;20111;-67
2023/08/15 04:10:39;;;;;;;10.30;4.53;;;21.50;73.20;;;;;;5045018;28;20498;-67
2023/08/15 04:13:09;;;;;;;12.65;5.25;;;21.50;73.30;;;;;;5048968;28;20025;-67
2023/08/15 04:15:38;;;;;;;11.23;4.70;;;21.40;73.30;;;;;;5042744;28;20017;-67
2023/08/15 04:18:06;;;;;;;9.25;4.40;;;21.40;73.30;;;;;;5045130;28;20040;-67
2023/08/15 04:20:36;;;;;;;10.43;5.00;;;21.40;73.40;;;;;;5049979;28;20017;-67
2023/08/15 04:23:02;;;;;;;12.25;5.30;;;21.30;73.40;;;;;;5045135;28;20044;-67
2023/08/15 04:25:28;;;;;;;11.02;5.00;;;21.30;73.40;;;;;;5042346;28;20440;-67
2023/08/15 04:27:54;;;;;;;10.90;4.22;;;21.30;73.50;;;;;;5061642;28;20021;-67
2023/08/15 04:30:20;;;;;;;9.88;4.25;;;21.30;73.60;;;;;;5048821;28;20450;-67
2023/08/15 04:32:46;;;;;;;10.48;4.28;;;21.30;73.70;;;;;;5046628;28;20041;-67
2023/08/15 04:35:14;;;;;;;9.35;4.68;;;21.20;73.80;;;;;;5048125;28;20029;-66
2023/08/15 04:37:40;;;;;;;14.95;4.63;;;21.20;73.80;;;;;;5045458;28;20031;-67
2023/08/15 04:40:11;;;;;;;10.35;4.30;;;21.20;73.90;;;;;;5047374;28;20017;-67
2023/08/15 04:42:37;;;;;;;11.05;4.60;;;21.20;74.00;;;;;;5057345;28;20021;-67
2023/08/15 04:45:03;;;;;;;11.27;5.10;;;21.20;74.10;;;;;;5050301;28;20048;-67
2023/08/15 04:47:29;;;;;;;14.38;4.68;;;21.10;74.10;;;;;;5028374;28;20028;-67
2023/08/15 04:49:55;;;;;;;10.40;5.07;;;21.10;74.10;;;;;;5054357;28;20025;-67
2023/08/15 04:52:20;;;;;;;9.98;4.72;;;21.10;74.20;;;;;;5053612;28;20485;-66
2023/08/15 04:54:46;;;;;;;11.60;4.70;;;21.10;74.30;;;;;;5038140;28;20017;-67
2023/08/15 04:57:12;;;;;;;8.75;4.30;;;21.10;74.40;;;;;;5055920;28;20066;-66
2023/08/15 04:59:38;;;;;;;11.00;4.70;;;21.10;74.50;;;;;;5052196;28;20032;-67
2023/08/15 05:02:03;;;;;;;11.15;4.90;;;21.00;74.50;;;;;;5055793;28;20354;-67
2023/08/15 05:04:30;;;;;;;9.38;4.70;;;21.00;74.50;;;;;;5056783;28;20090;-67
2023/08/15 05:06:55;;;;;;;9.65;4.07;;;21.00;74.50;;;;;;5058811;28;20067;-67
2023/08/15 05:09:22;;;;;;;8.63;4.25;;;21.00;74.60;;;;;;5057222;28;20072;-67
2023/08/15 05:11:47;;;;;;;10.35;4.10;;;21.00;74.60;;;;;;5056628;28;20059;-67
2023/08/15 05:14:13;;;;;;;9.85;4.00;;;21.00;74.60;;;;;;5054592;28;20178;-67
2023/08/15 05:16:39;;;;;;;9.80;4.10;;;21.00;74.60;;;;;;5057472;28;20048;-68
2023/08/15 05:19:05;;;;;;;12.38;4.35;;;21.00;74.70;;;;;;5057100;28;20060;-67
2023/08/15 05:21:31;;;;;;;9.90;4.32;;;21.00;74.70;;;;;;5057372;28;20110;-68
2023/08/15 05:23:56;;;;;;;9.40;4.22;;;20.90;75.40;;;;;;5052540;28;20029;-67
2023/08/15 05:26:22;;;;;;;9.75;4.03;;;20.90;74.80;;;;;;5055544;28;20032;-67
2023/08/15 05:28:48;;;;;;;9.35;3.35;;;21.00;74.90;;;;;;5053571;28;20045;-67
2023/08/15 05:31:14;;;;;;;11.68;3.70;;;21.00;75.00;;;;;;5049292;28;20032;-68
2023/08/15 05:33:40;;;;;;;8.57;3.67;;;20.90;74.90;;;;;;5051184;28;20098;-67
2023/08/15 05:36:06;;;;;;;11.63;4.18;;;20.90;74.90;;;;;;5050080;28;20029;-67
2023/08/15 05:38:32;;;;;;;8.60;3.75;;;21.00;74.90;;;;;;5053513;28;20036;-67
2023/08/15 05:40:57;;;;;;;10.38;4.15;;;21.10;74.90;;;;;;5051244;28;20645;-67
2023/08/15 05:43:23;;;;;;;12.98;4.78;;;21.20;74.70;;;;;;5053467;28;20350;-67
2023/08/15 05:45:49;;;;;;;12.25;4.38;;;21.20;74.40;;;;;;5050655;28;20122;-67
2023/08/15 05:48:15;;;;;;;10.25;4.43;;;21.30;74.30;;;;;;5051929;28;20094;-67
2023/08/15 05:50:40;;;;;;;12.00;4.55;;;21.40;74.30;;;;;;5056218;28;20024;-66
2023/08/15 05:53:06;;;;;;;8.40;4.30;;;21.40;74.10;;;;;;5053217;28;20112;-67
2023/08/15 05:55:32;;;;;;;9.65;3.97;;;21.40;74.00;;;;;;5044992;28;20025;-66
2023/08/15 05:57:58;;;;;;;9.65;4.10;;;21.40;74.00;;;;;;5050309;28;20041;-67
2023/08/15 06:00:23;;;;;;;8.82;3.80;;;21.40;74.20;;;;;;5050353;28;20032;-68
2023/08/15 06:02:49;;;;;;;9.70;4.32;;;21.50;74.30;;;;;;5048070;28;20040;-66
2023/08/15 06:05:15;;;;;;;11.40;4.32;;;21.50;74.10;;;;;;5046504;28;20365;-67
2023/08/15 06:07:41;;;;;;;9.30;4.03;;;21.50;74.10;;;;;;5037160;28;20021;-67
2023/08/15 06:10:08;;;;;;;10.02;4.68;;;21.50;74.10;;;;;;5047002;28;21096;-67
2023/08/15 06:12:34;;;;;;;10.63;4.43;;;21.50;74.10;;;;;;5051513;28;20036;-67
2023/08/15 06:15:00;;;;;;;9.95;4.35;;;21.50;74.10;;;;;;5051674;28;20442;-67
2023/08/15 06:17:26;;;;;;;9.68;4.03;;;21.60;74.80;;;;;;5052694;28;20020;-67
2023/08/15 06:19:53;;;;;;;10.02;3.67;;;21.70;74.10;;;;;;5051311;28;20025;-67
2023/08/15 06:22:19;;;;;;;12.77;4.22;;;21.80;74.10;;;;;;5048050;28;20454;-68
2023/08/15 06:24:44;;;;;;;10.93;3.85;;;21.90;73.90;;;;;;5053595;28;20033;-67
2023/08/15 06:27:11;;;;;;;11.50;4.25;;;22.00;73.70;;;;;;5031424;28;20030;-67
2023/08/15 06:29:37;;;;;;;9.55;4.60;;;22.00;73.50;;;;;;5046715;28;20029;-69
2023/08/15 06:32:03;;;;;;;10.48;4.03;;;22.00;73.50;;;;;;5051621;28;20079;-69
2023/08/15 06:34:28;;;;;;;9.50;3.88;;;22.10;73.30;;;;;;5052009;28;20481;-70
2023/08/15 06:36:54;;;;;;;14.30;4.32;;;22.10;73.10;;;;;;5049048;28;20383;-71
2023/08/15 06:39:20;;;;;;;10.88;4.35;;;22.20;73.10;;;;;;5029142;28;20029;-68
2023/08/15 06:41:46;;;;;;;10.38;4.32;;;22.30;73.10;;;;;;5055857;28;20100;-68
2023/08/15 06:44:12;;;;;;;10.05;4.70;;;22.40;72.90;;;;;;5046986;28;20029;-69
2023/08/15 06:46:37;;;;;;;10.88;5.05;;;22.50;72.50;;;;;;5050764;28;20040;-71
2023/08/15 06:49:03;;;;;;;10.23;4.20;;;22.60;72.30;;;;;;5047522;28;20035;-71
2023/08/15 06:51:30;;;;;;;8.95;4.40;;;22.70;72.20;;;;;;5048092;28;20032;-70
2023/08/15 06:53:56;;;;;;;9.70;4.25;;;22.80;71.90;;;;;;5030754;28;20048;-70
2023/08/15 06:56:21;;;;;;;9.75;4.00;;;22.90;71.80;;;;;;5051234;28;20021;-70
2023/08/15 06:58:47;;;;;;;12.15;4.00;;;23.10;71.60;;;;;;5051311;28;20491;-70
2023/08/15 07:01:13;;;;;;;9.90;3.85;;;23.20;71.30;;;;;;5054513;28;20024;-70
2023/08/15 07:03:39;;;;;;;10.45;4.57;;;23.40;70.90;;;;;;5045215;28;20059;-68
2023/08/15 07:06:05;;;;;;;11.45;3.80;;;23.60;70.60;;;;;;5048742;28;20367;-70
2023/08/15 07:08:32;;;;;;;9.60;3.97;;;23.70;70.00;;;;;;5045153;28;20025;-71
2023/08/15 07:10:59;;;;;;;9.25;3.83;;;23.80;69.80;;;;;;5045646;28;20124;-71
2023/08/15 07:13:24;;;;;;;8.15;4.13;;;23.90;69.50;;;;;;5047592;28;20067;-72
2023/08/15 07:15:58;;;;;;;10.55;3.80;;;24.00;69.30;;;;;;5044182;28;20056;-72
2023/08/15 07:18:24;;;;;;;10.00;4.13;;;24.00;68.90;;;;;;5048320;28;20434;-72
2023/08/15 07:20:53;;;;;;;7.55;3.80;;;24.10;69.10;;;;;;5049946;28;20112;-72
2023/08/15 07:23:20;;;;;;;9.35;3.92;;;24.10;68.90;;;;;;5041319;28;20039;-73
2023/08/15 07:25:46;;;;;;;8.93;3.28;;;24.20;68.80;;;;;;5042187;28;20044;-72
2023/08/15 07:28:12;;;;;;;9.25;3.63;;;24.30;68.60;;;;;;5040061;28;20025;-72
2023/08/15 07:30:38;;;;;;;9.35;3.75;;;24.50;68.20;;;;;;5039932;28;20074;-73
2023/08/15 07:33:05;;;;;;;10.15;3.38;;;24.60;67.80;;;;;;5042058;28;20377;-72
2023/08/15 07:35:31;;;;;;;9.27;3.67;;;24.70;67.40;;;;;;5047743;28;20036;-72
2023/08/15 07:37:57;;;;;;;11.18;3.92;;;24.70;67.40;;;;;;5045580;28;20024;-72
2023/08/15 07:40:23;;;;;;;10.90;3.90;;;24.70;67.40;;;;;;5046460;28;20094;-72
2023/08/15 07:42:49;;;;;;;10.02;3.88;;;24.70;67.20;;;;;;5040120;28;20163;-73
2023/08/15 07:45:19;;;;;;;7.15;3.42;;;24.90;67.00;;;;;;5047834;28;20029;-72
2023/08/15 07:47:48;;;;;;;9.57;3.78;;;25.00;66.90;;;;;;5052356;28;20112;-72
2023/08/15 07:50:27;;;;;;;9.32;3.70;;;25.10;67.20;;;;;;5050654;28;20037;-72
2023/08/15 07:53:00;;;;;;;8.32;3.83;;;25.10;66.20;;;;;;5055462;28;20057;-72
2023/08/15 07:55:32;;;;;;;11.63;4.25;;;25.10;66.40;;;;;;5037843;28;20032;-72
2023/08/15 07:57:58;;;;;;;10.20;3.88;;;25.10;66.40;;;;;;5054428;28;20029;-72
2023/08/15 08:00:24;;;;;;;9.52;3.80;;;25.10;66.40;;;;;;5053488;28;20032;-72
2023/08/15 08:02:50;;;;;;;9.60;3.38;;;25.10;66.20;;;;;;5055005;28;20033;-72
2023/08/15 08:05:16;;;;;;;8.30;3.30;;;25.10;66.10;;;;;;5037948;28;20447;-72
2023/08/15 08:07:43;;;;;;;9.88;3.47;;;25.20;66.20;;;;;;5053944;28;20128;-72
2023/08/15 08:10:09;;;;;;;11.00;3.90;;;25.00;66.40;;;;;;5052720;28;20028;-72
2023/08/15 08:12:35;;;;;;;10.32;4.20;;;24.80;66.80;;;;;;5055040;28;20450;-72
2023/08/15 08:15:02;;;;;;;8.93;3.28;;;24.60;67.20;;;;;;5054552;28;20072;-72
2023/08/15 08:17:28;;;;;;;8.20;3.33;;;24.50;67.60;;;;;;5055120;28;20053;-72
2023/08/15 08:19:54;;;;;;;10.68;3.55;;;24.40;68.00;;;;;;5033596;28;20514;-72
2023/08/15 08:22:20;;;;;;;11.00;3.60;;;24.50;68.00;;;;;;5052351;28;20412;-72
2023/08/15 08:24:48;;;;;;;10.43;3.58;;;24.70;67.70;;;;;;5053526;28;20063;-72
2023/08/15 08:27:14;;;;;;;10.52;3.30;;;24.80;67.50;;;;;;5053772;28;20021;-72
2023/08/15 08:29:39;;;;;;;9.30;3.67;;;24.80;67.20;;;;;;5054679;28;20420;-72
2023/08/15 08:32:05;;;;;;;7.40;2.92;;;25.00;66.80;;;;;;5051790;28;20048;-72
2023/08/15 08:34:31;;;;;;;10.55;3.05;;;25.10;66.40;;;;;;5054373;28;20052;-72
2023/08/15 08:36:57;;;;;;;9.50;2.88;;;25.10;66.40;;;;;;5054526;28;20025;-72
2023/08/15 08:39:22;;;;;;;7.75;2.83;;;25.00;66.30;;;;;;5054702;28;20119;-72
2023/08/15 08:41:48;;;;;;;9.88;2.92;;;25.00;66.80;;;;;;5052124;28;20033;-72
2023/08/15 08:44:17;;;;;;;6.85;2.67;;;24.90;66.30;;;;;;5036742;28;20033;-72
2023/08/15 08:46:44;;;;;;;6.70;2.53;;;24.90;66.40;;;;;;5041029;28;20103;-72
2023/08/15 08:49:11;;;;;;;8.48;2.70;;;24.90;66.40;;;;;;5051951;28;20033;-72
2023/08/15 08:51:38;;;;;;;7.95;3.05;;;24.90;66.30;;;;;;5046832;28;20029;-72
2023/08/15 08:54:04;;;;;;;7.38;2.85;;;24.90;66.20;;;;;;5043921;28;20103;-72
2023/08/15 08:56:32;;;;;;;10.13;3.00;;;24.90;66.30;;;;;;5047084;28;20025;-72
2023/08/15 08:59:11;;;;;;;6.10;2.30;;;24.90;66.40;;;;;;5048199;28;20440;-71
2023/08/15 09:01:38;;;;;;;7.28;2.70;;;24.90;66.30;;;;;;5048022;28;20127;-72
2023/08/15 09:04:04;;;;;;;8.55;2.78;;;24.90;66.40;;;;;;5029004;28;20029;-71
2023/08/15 09:06:30;;;;;;;11.55;3.30;;;24.80;66.50;;;;;;5049320;28;20126;-71
2023/08/15 09:08:59;;;;;;;7.47;2.58;;;24.80;66.70;;;;;;5044407;28;20053;-72
2023/08/15 09:11:35;;;;;;;7.88;2.42;;;24.70;66.80;;;;;;5030473;28;20036;-71
2023/08/15 09:14:04;;;;;;;6.68;2.83;;;24.60;66.90;;;;;;5040878;28;20076;-71
2023/08/15 09:16:33;;;;;;;7.93;2.50;;;24.50;66.80;;;;;;5045290;28;20341;-72
2023/08/15 09:19:02;;;;;;;8.68;2.83;;;24.50;66.80;;;;;;5050588;28;20366;-71
2023/08/15 09:21:28;;;;;;;8.00;2.42;;;24.60;66.50;;;;;;5040497;28;20017;-71
2023/08/15 09:23:56;;;;;;;8.00;2.70;;;24.60;66.30;;;;;;5049205;28;20116;-71
2023/08/15 09:26:23;;;;;;;7.63;2.50;;;24.60;66.20;;;;;;5027806;28;20025;-71
2023/08/15 09:28:49;;;;;;;9.02;2.38;;;24.70;66.00;;;;;;5047693;28;20029;-72
2023/08/15 09:31:15;;;;;;;8.80;2.40;;;24.90;65.70;;;;;;5046872;28;20029;-72
2023/08/15 09:33:42;;;;;;;5.47;2.25;;;25.00;65.50;;;;;;5045750;28;20149;-71
2023/08/15 09:36:09;;;;;;;8.75;2.67;;;25.10;65.40;;;;;;5032217;28;20234;-71
2023/08/15 09:38:39;;;;;;;8.15;2.45;;;25.10;66.00;;;;;;5047525;28;20319;-72
2023/08/15 09:41:09;;;;;;;10.05;2.58;;;25.10;65.20;;;;;;5033753;28;20357;-72
2023/08/15 09:43:35;;;;;;;7.30;2.58;;;25.30;65.10;;;;;;5032877;28;20442;-72
2023/08/15 09:46:01;;;;;;;9.07;2.35;;;25.40;64.80;;;;;;5032838;28;20028;-71
2023/08/15 09:48:30;;;;;;;7.57;2.38;;;25.70;64.40;;;;;;5033007;28;20458;-71
2023/08/15 09:50:56;;;;;;;7.53;2.45;;;25.80;64.00;;;;;;5030546;28;20114;-72
2023/08/15 09:53:23;;;;;;;8.63;2.80;;;25.90;63.90;;;;;;5047775;28;20095;-72
2023/08/15 09:55:50;;;;;;;5.22;2.40;;;26.00;63.80;;;;;;5045669;28;20033;-72
2023/08/15 09:58:16;;;;;;;8.68;2.88;;;26.00;63.60;;;;;;5054134;28;20028;-72
2023/08/15 10:00:45;;;;;;;8.60;2.63;;;26.20;63.50;;;;;;5046754;28;20025;-72
2023/08/15 10:03:35;;;;;;;10.05;3.50;;;26.40;63.10;;;;;;5050882;28;20036;-72
2023/08/15 10:06:02;;;;;;;8.25;3.25;;;26.50;62.70;;;;;;5053173;28;20112;-72
2023/08/15 10:08:29;;;;;;;7.70;2.92;;;26.30;62.90;;;;;;5029590;28;20024;-72
2023/08/15 10:10:58;;;;;;;6.80;2.63;;;26.10;63.10;;;;;;5049798;28;20029;-72
2023/08/15 10:13:36;;;;;;;8.48;3.17;;;26.00;63.30;;;;;;5049420;28;20029;-72
2023/08/15 10:16:05;;;;;;;7.45;3.35;;;25.90;63.60;;;;;;5043879;28;20048;-73
2023/08/15 10:18:31;;;;;;;9.13;3.53;;;25.80;63.60;;;;;;5047212;28;20026;-73
2023/08/15 10:20:58;;;;;;;11.80;3.38;;;25.70;63.90;;;;;;5051819;28;20496;-72
2023/08/15 10:23:34;;;;;;;8.55;3.58;;;25.50;64.10;;;;;;5046795;28;20119;-73
2023/08/15 10:26:01;;;;;;;11.23;4.20;;;25.50;64.20;;;;;;5060569;28;20406;-72
2023/08/15 10:28:28;;;;;;;9.60;3.67;;;25.40;64.30;;;;;;5064651;28;20024;-74
2023/08/15 10:30:55;;;;;;;8.30;3.55;;;25.30;64.40;;;;;;5043129;28;20099;-73
2023/08/15 10:33:23;;;;;;;10.68;3.92;;;25.30;64.60;;;;;;5051679;28;20152;-73
2023/08/15 10:35:55;;;;;;;8.30;3.55;;;25.20;64.70;;;;;;5032096;28;20035;-73
2023/08/15 10:38:43;;;;;;;8.52;3.47;;;25.30;64.90;;;;;;5053248;28;20040;-73
2023/08/15 10:41:19;;;;;;;7.10;3.58;;;25.30;64.90;;;;;;5050008;28;20031;-73
2023/08/15 10:43:59;;;;;;;9.43;3.58;;;25.40;64.80;;;;;;5033304;28;20067;-73
2023/08/15 10:46:27;;;;;;;9.60;3.58;;;25.40;64.50;;;;;;5049799;28;20049;-73
2023/08/15 10:48:55;;;;;;;8.57;3.58;;;25.50;64.30;;;;;;5045960;28;20420;-74
2023/08/15 10:51:22;;;;;;;8.25;3.90;;;25.70;64.20;;;;;;5048547;28;20028;-74
2023/08/15 10:54:05;;;;;;;7.40;3.85;;;25.90;63.70;;;;;;5045788;28;20427;-73
2023/08/15 10:56:35;;;;;;;8.05;3.42;;;26.20;63.30;;;;;;5047086;28;20025;-74
2023/08/15 10:59:15;;;;;;;7.13;3.20;;;26.50;62.80;;;;;;5043886;28;20025;-75
2023/08/15 11:01:43;;;;;;;9.73;3.30;;;26.60;62.30;;;;;;5032759;28;20306;-74
2023/08/15 11:04:13;;;;;;;8.18;3.47;;;26.60;62.00;;;;;;5048957;28;20649;-75
2023/08/15 11:06:45;;;;;;;7.13;3.20;;;26.70;61.90;;;;;;5031474;28;20409;-74
2023/08/15 11:09:11;;;;;;;10.52;3.40;;;26.80;61.60;;;;;;5049243;28;20667;-74
2023/08/15 11:11:37;;;;;;;8.07;3.17;;;26.70;61.40;;;;;;5052845;28;20088;-72
2023/08/15 11:14:02;;;;;;;9.88;2.97;;;26.70;61.50;;;;;;5047179;28;20040;-72
2023/08/15 11:16:28;;;;;;;8.68;3.53;;;26.80;61.20;;;;;;5052318;28;20017;-72
2023/08/15 11:18:59;;;;;;;8.07;3.65;;;27.00;60.80;;;;;;5015426;28;21400;-71
2023/08/15 11:21:28;;;;;;;7.65;2.67;;;27.20;60.20;;;;;;5051610;28;20075;-72
2023/08/15 11:23:58;;;;;;;7.70;3.00;;;27.40;60.10;;;;;;5045784;28;20039;-71
2023/08/15 11:26:25;;;;;;;8.33;3.00;;;27.50;59.90;;;;;;5063476;28;20024;-74
2023/08/15 11:28:51;;;;;;;7.82;2.65;;;27.60;59.90;;;;;;5032807;28;20481;-73
2023/08/15 11:31:17;;;;;;;6.35;2.65;;;27.70;59.50;;;;;;5047432;28;20033;-73
2023/08/15 11:33:44;;;;;;;7.40;3.20;;;27.70;59.40;;;;;;5027574;28;20045;-72
2023/08/15 11:36:10;;;;;;;8.75;2.80;;;27.50;59.40;;;;;;5031090;28;20029;-74
2023/08/15 11:38:37;;;;;;;8.10;3.38;;;27.50;59.50;;;;;;5050329;28;20021;-76
2023/08/15 11:41:04;;;;;;;9.70;3.35;;;27.50;59.40;;;;;;5051359;28;20636;-73
2023/08/15 11:43:33;;;;;;;7.95;3.13;;;27.40;59.40;;;;;;5049099;28;20033;-72
2023/08/15 11:46:03;;;;;;;7.05;2.97;;;27.20;59.30;;;;;;5049878;28;20075;-72
2023/08/15 11:48:33;;;;;;;8.95;3.35;;;27.10;59.50;;;;;;5046906;28;20039;-72
2023/08/15 11:50:59;;;;;;;8.07;3.45;;;27.10;59.90;;;;;;5042624;28;20511;-69
2023/08/15 11:53:25;;;;;;;6.97;3.20;;;27.00;60.10;;;;;;5048848;28;20021;-72
2023/08/15 11:55:52;;;;;;;10.45;3.70;;;26.80;60.40;;;;;;5046771;28;20025;-72
2023/08/15 11:58:32;;;;;;;7.22;3.72;;;26.70;60.80;;;;;;5046078;28;20018;-73
2023/08/15 12:01:05;;;;;;;9.25;4.05;;;26.50;60.80;;;;;;5040275;28;20033;-73
2023/08/15 12:03:32;;;;;;;8.65;4.15;;;26.40;61.10;;;;;;5040993;28;20029;-73
2023/08/15 12:06:00;;;;;;;9.40;4.32;;;26.20;61.30;;;;;;5066471;28;20037;-73
2023/08/15 12:08:28;;;;;;;8.15;4.40;;;26.10;61.50;;;;;;5053443;28;20039;-74
2023/08/15 12:10:55;;;;;;;8.70;4.50;;;26.20;61.60;;;;;;5053933;28;20037;-73
2023/08/15 12:13:31;;;;;;;8.95;4.55;;;26.20;61.30;;;;;;5054026;28;20047;-73
2023/08/15 12:15:56;;;;;;;9.13;4.28;;;26.20;61.30;;;;;;5037028;28;20473;-74
2023/08/15 12:18:22;;;;;;;10.13;4.18;;;26.20;61.60;;;;;;5054055;28;20054;-73
2023/08/15 12:20:48;;;;;;;9.35;4.45;;;26.20;61.80;;;;;;5054036;28;20017;-73
2023/08/15 12:23:14;;;;;;;8.80;4.53;;;26.30;61.80;;;;;;5053550;28;20029;-73
2023/08/15 12:25:40;;;;;;;9.38;4.47;;;26.60;61.70;;;;;;5054551;28;20044;-73
2023/08/15 12:28:07;;;;;;;7.07;4.03;;;26.70;61.40;;;;;;5055110;28;20342;-74
2023/08/15 12:30:33;;;;;;;10.13;4.32;;;26.70;61.20;;;;;;5052827;28;20044;-73
2023/08/15 12:33:01;;;;;;;9.75;4.60;;;26.60;61.20;;;;;;5053293;28;20118;-73
2023/08/15 12:35:26;;;;;;;9.25;4.30;;;26.60;61.20;;;;;;5037012;28;20021;-73
2023/08/15 12:37:52;;;;;;;11.25;4.13;;;26.60;61.10;;;;;;5036808;28;20335;-73
2023/08/15 12:40:18;;;;;;;10.18;4.72;;;26.70;61.20;;;;;;5050190;28;20074;-74
2023/08/15 12:42:44;;;;;;;11.10;4.63;;;26.70;60.90;;;;;;5053856;28;20028;-73
2023/08/15 12:45:10;;;;;;;9.68;4.13;;;26.60;61.00;;;;;;5036857;28;20649;-73